Asher, Kentucky
Current Conditions -  °F | °C
As of 8:15 PM on Friday 31 Oct 2014 (Local Time) from KI35 Reporting Station
Overcast Overcast  
Wind Chill: 29°   Ceiling: 1700
Heat Index: 36°   Visibility: 7mi
Dew Point: 34°   Wind: 8mph
Humidity: 93%   Direction: 190°S
Pressure: 29.96"   Gusts: 18mph
Location:  37.04°N, 83.4°W
Report Text: KI35 010015Z AUTO 19007G16KT 130V230 7SM OVC017 02/01 A2996 RMK AO1
Loading
Personal Weather Stations






























Interactive Weather Map
Tropical Storm Tracking
New forecast layout! Learn more

10-Day Weather Forecast

Advertisements
Track Severe Weather on mobile